sensor_id;sensor_type;location;lat;lon;timestamp;temperature;humidity
33903;DHT22;20194;50.950;5.346;2022-08-05T00:00:41;22.80;1.00
33903;DHT22;20194;50.950;5.346;2022-08-05T00:03:10;22.90;1.00
33903;DHT22;20194;50.950;5.346;2022-08-05T00:05:36;22.80;1.00
33903;DHT22;20194;50.950;5.346;2022-08-05T00:08:02;22.70;1.00
33903;DHT22;20194;50.950;5.346;2022-08-05T00:10:28;22.60;1.00
33903;DHT22;20194;50.950;5.346;2022-08-05T00:12:53;22.60;1.00
33903;DHT22;20194;50.950;5.346;2022-08-05T00:15:20;22.70;1.00
33903;DHT22;20194;50.950;5.346;2022-08-05T00:17:45;22.70;1.00
33903;DHT22;20194;50.950;5.346;2022-08-05T00:20:11;22.60;1.00
33903;DHT22;20194;50.950;5.346;2022-08-05T00:22:37;22.70;1.00
33903;DHT22;20194;50.950;5.346;2022-08-05T00:25:03;22.70;1.00
33903;DHT22;20194;50.950;5.346;2022-08-05T00:27:29;22.70;1.00
33903;DHT22;20194;50.950;5.346;2022-08-05T00:29:55;22.80;1.00
33903;DHT22;20194;50.950;5.346;2022-08-05T00:32:21;22.80;1.00
33903;DHT22;20194;50.950;5.346;2022-08-05T00:34:46;22.80;1.00
33903;DHT22;20194;50.950;5.346;2022-08-05T00:37:14;22.80;1.00
33903;DHT22;20194;50.950;5.346;2022-08-05T00:39:40;22.60;1.00
33903;DHT22;20194;50.950;5.346;2022-08-05T00:42:09;22.50;1.00
33903;DHT22;20194;50.950;5.346;2022-08-05T00:44:38;22.30;1.00
33903;DHT22;20194;50.950;5.346;2022-08-05T00:47:03;22.20;1.00
33903;DHT22;20194;50.950;5.346;2022-08-05T00:49:30;22.20;1.00
33903;DHT22;20194;50.950;5.346;2022-08-05T00:51:55;22.30;1.00
33903;DHT22;20194;50.950;5.346;2022-08-05T00:54:22;22.10;1.00
33903;DHT22;20194;50.950;5.346;2022-08-05T00:56:47;22.20;1.00
33903;DHT22;20194;50.950;5.346;2022-08-05T00:59:13;22.10;1.00
33903;DHT22;20194;50.950;5.346;2022-08-05T01:01:39;21.50;2.00
33903;DHT22;20194;50.950;5.346;2022-08-05T01:04:04;21.30;7.30
33903;DHT22;20194;50.950;5.346;2022-08-05T01:06:30;21.30;6.90
33903;DHT22;20194;50.950;5.346;2022-08-05T01:08:56;21.40;7.70
33903;DHT22;20194;50.950;5.346;2022-08-05T01:11:26;21.40;8.80
33903;DHT22;20194;50.950;5.346;2022-08-05T01:19:24;21.00;22.00
33903;DHT22;20194;50.950;5.346;2022-08-05T01:24:40;21.00;24.60
33903;DHT22;20194;50.950;5.346;2022-08-05T01:30:09;20.80;22.70
33903;DHT22;20194;50.950;5.346;2022-08-05T01:32:38;21.10;20.10
33903;DHT22;20194;50.950;5.346;2022-08-05T01:35:09;21.00;22.20
33903;DHT22;20194;50.950;5.346;2022-08-05T01:40:10;21.00;19.90
33903;DHT22;20194;50.950;5.346;2022-08-05T01:42:39;20.80;23.70
33903;DHT22;20194;50.950;5.346;2022-08-05T01:45:06;21.00;23.10
33903;DHT22;20194;50.950;5.346;2022-08-05T01:47:34;20.90;22.20
33903;DHT22;20194;50.950;5.346;2022-08-05T01:50:05;21.10;21.60
33903;DHT22;20194;50.950;5.346;2022-08-05T01:52:33;21.20;19.90
33903;DHT22;20194;50.950;5.346;2022-08-05T01:55:04;20.90;24.70
33903;DHT22;20194;50.950;5.346;2022-08-05T01:57:34;21.00;22.80
33903;DHT22;20194;50.950;5.346;2022-08-05T02:00:04;21.20;18.40
33903;DHT22;20194;50.950;5.346;2022-08-05T02:02:31;21.40;16.50
33903;DHT22;20194;50.950;5.346;2022-08-05T02:05:00;21.50;15.00
33903;DHT22;20194;50.950;5.346;2022-08-05T02:07:29;21.50;15.20
33903;DHT22;20194;50.950;5.346;2022-08-05T02:09:56;21.50;13.10
33903;DHT22;20194;50.950;5.346;2022-08-05T02:12:33;21.30;15.90
33903;DHT22;20194;50.950;5.346;2022-08-05T02:15:34;21.50;14.70
33903;DHT22;20194;50.950;5.346;2022-08-05T02:18:24;21.60;12.90
33903;DHT22;20194;50.950;5.346;2022-08-05T02:20:52;21.50;13.50
33903;DHT22;20194;50.950;5.346;2022-08-05T02:23:23;21.30;18.30
33903;DHT22;20194;50.950;5.346;2022-08-05T02:25:51;21.30;16.70
33903;DHT22;20194;50.950;5.346;2022-08-05T02:28:25;21.10;19.20
33903;DHT22;20194;50.950;5.346;2022-08-05T02:31:06;21.10;19.00
33903;DHT22;20194;50.950;5.346;2022-08-05T02:33:38;21.20;17.40
33903;DHT22;20194;50.950;5.346;2022-08-05T02:36:08;21.40;16.20
33903;DHT22;20194;50.950;5.346;2022-08-05T02:38:35;21.50;14.50
33903;DHT22;20194;50.950;5.346;2022-08-05T02:41:03;21.60;12.10
33903;DHT22;20194;50.950;5.346;2022-08-05T02:43:31;21.10;17.30
33903;DHT22;20194;50.950;5.346;2022-08-05T02:45:57;20.70;24.30
33903;DHT22;20194;50.950;5.346;2022-08-05T02:48:25;21.00;22.70
33903;DHT22;20194;50.950;5.346;2022-08-05T02:50:52;20.90;23.00
33903;DHT22;20194;50.950;5.346;2022-08-05T02:53:19;21.00;21.90
33903;DHT22;20194;50.950;5.346;2022-08-05T02:55:47;21.10;21.90
33903;DHT22;20194;50.950;5.346;2022-08-05T02:58:15;21.20;19.20
33903;DHT22;20194;50.950;5.346;2022-08-05T03:00:43;21.50;16.20
33903;DHT22;20194;50.950;5.346;2022-08-05T03:03:13;21.60;12.40
33903;DHT22;20194;50.950;5.346;2022-08-05T03:05:39;21.70;10.30
33903;DHT22;20194;50.950;5.346;2022-08-05T03:08:06;21.80;9.50
33903;DHT22;20194;50.950;5.346;2022-08-05T03:10:31;21.70;7.40
33903;DHT22;20194;50.950;5.346;2022-08-05T03:12:57;21.80;6.40
33903;DHT22;20194;50.950;5.346;2022-08-05T03:15:23;21.80;6.50
33903;DHT22;20194;50.950;5.346;2022-08-05T03:17:49;21.80;6.00
33903;DHT22;20194;50.950;5.346;2022-08-05T03:20:14;21.60;9.70
33903;DHT22;20194;50.950;5.346;2022-08-05T03:22:41;21.70;7.60
33903;DHT22;20194;50.950;5.346;2022-08-05T03:25:07;21.80;6.10
33903;DHT22;20194;50.950;5.346;2022-08-05T03:27:33;21.90;4.10
33903;DHT22;20194;50.950;5.346;2022-08-05T03:29:58;22.00;3.40
33903;DHT22;20194;50.950;5.346;2022-08-05T03:32:24;22.00;2.70
33903;DHT22;20194;50.950;5.346;2022-08-05T03:34:51;22.00;3.10
33903;DHT22;20194;50.950;5.346;2022-08-05T03:37:18;22.10;3.90
33903;DHT22;20194;50.950;5.346;2022-08-05T03:39:55;22.10;4.60
33903;DHT22;20194;50.950;5.346;2022-08-05T03:42:21;22.00;4.50
33903;DHT22;20194;50.950;5.346;2022-08-05T03:44:47;22.00;3.00
33903;DHT22;20194;50.950;5.346;2022-08-05T03:47:13;22.10;2.20
33903;DHT22;20194;50.950;5.346;2022-08-05T03:49:38;22.00;4.10
33903;DHT22;20194;50.950;5.346;2022-08-05T03:52:08;22.00;3.90
33903;DHT22;20194;50.950;5.346;2022-08-05T03:54:42;22.00;3.40
33903;DHT22;20194;50.950;5.346;2022-08-05T03:57:11;22.00;3.60
33903;DHT22;20194;50.950;5.346;2022-08-05T03:59:42;22.00;3.70
33903;DHT22;20194;50.950;5.346;2022-08-05T04:02:10;21.80;7.20
33903;DHT22;20194;50.950;5.346;2022-08-05T04:04:37;21.70;9.10
33903;DHT22;20194;50.950;5.346;2022-08-05T04:07:04;21.60;11.50
33903;DHT22;20194;50.950;5.346;2022-08-05T04:09:30;21.40;14.90
33903;DHT22;20194;50.950;5.346;2022-08-05T04:11:56;21.40;15.70
33903;DHT22;20194;50.950;5.346;2022-08-05T04:14:24;21.40;14.50
33903;DHT22;20194;50.950;5.346;2022-08-05T04:16:51;21.40;14.70
33903;DHT22;20194;50.950;5.346;2022-08-05T04:19:17;21.50;14.90
33903;DHT22;20194;50.950;5.346;2022-08-05T04:21:42;21.50;13.30
33903;DHT22;20194;50.950;5.346;2022-08-05T04:24:08;21.40;15.50
33903;DHT22;20194;50.950;5.346;2022-08-05T04:26:34;21.30;15.90
33903;DHT22;20194;50.950;5.346;2022-08-05T04:29:00;21.30;18.20
33903;DHT22;20194;50.950;5.346;2022-08-05T04:31:26;21.20;16.70
33903;DHT22;20194;50.950;5.346;2022-08-05T04:33:51;21.00;23.10
33903;DHT22;20194;50.950;5.346;2022-08-05T04:36:18;21.00;22.60
33903;DHT22;20194;50.950;5.346;2022-08-05T04:38:44;21.00;21.30
33903;DHT22;20194;50.950;5.346;2022-08-05T04:41:11;20.90;19.90
33903;DHT22;20194;50.950;5.346;2022-08-05T04:43:37;20.80;21.50
33903;DHT22;20194;50.950;5.346;2022-08-05T04:46:04;20.70;24.70
33903;DHT22;20194;50.950;5.346;2022-08-05T04:48:29;20.70;24.80
33903;DHT22;20194;50.950;5.346;2022-08-05T04:50:55;20.80;22.10
33903;DHT22;20194;50.950;5.346;2022-08-05T04:53:22;20.90;21.70
33903;DHT22;20194;50.950;5.346;2022-08-05T04:55:47;21.00;20.10
33903;DHT22;20194;50.950;5.346;2022-08-05T04:58:15;21.00;20.70
33903;DHT22;20194;50.950;5.346;2022-08-05T05:00:41;21.00;17.60
33903;DHT22;20194;50.950;5.346;2022-08-05T05:03:08;20.90;21.00
33903;DHT22;20194;50.950;5.346;2022-08-05T05:05:34;20.90;21.60
33903;DHT22;20194;50.950;5.346;2022-08-05T05:08:02;20.70;21.00
33903;DHT22;20194;50.950;5.346;2022-08-05T05:10:30;20.80;23.40
33903;DHT22;20194;50.950;5.346;2022-08-05T05:12:56;20.90;21.70
33903;DHT22;20194;50.950;5.346;2022-08-05T05:15:22;20.90;19.00
33903;DHT22;20194;50.950;5.346;2022-08-05T05:17:48;21.00;17.80
33903;DHT22;20194;50.950;5.346;2022-08-05T05:20:13;21.20;18.50
33903;DHT22;20194;50.950;5.346;2022-08-05T05:22:40;21.30;15.30
33903;DHT22;20194;50.950;5.346;2022-08-05T05:25:07;21.20;15.80
33903;DHT22;20194;50.950;5.346;2022-08-05T05:27:34;21.30;16.30
33903;DHT22;20194;50.950;5.346;2022-08-05T05:30:01;21.30;15.20
33903;DHT22;20194;50.950;5.346;2022-08-05T05:32:26;21.30;16.00
33903;DHT22;20194;50.950;5.346;2022-08-05T05:34:53;21.30;14.70
33903;DHT22;20194;50.950;5.346;2022-08-05T05:37:19;21.40;14.70
33903;DHT22;20194;50.950;5.346;2022-08-05T05:39:44;21.50;12.40
33903;DHT22;20194;50.950;5.346;2022-08-05T05:42:10;21.50;12.90
33903;DHT22;20194;50.950;5.346;2022-08-05T05:44:36;21.50;14.80
33903;DHT22;20194;50.950;5.346;2022-08-05T05:47:01;21.50;13.30
33903;DHT22;20194;50.950;5.346;2022-08-05T05:49:27;21.40;8.90
33903;DHT22;20194;50.950;5.346;2022-08-05T05:51:53;21.10;12.70
33903;DHT22;20194;50.950;5.346;2022-08-05T05:54:19;21.00;16.60
33903;DHT22;20194;50.950;5.346;2022-08-05T05:56:45;21.00;14.80
33903;DHT22;20194;50.950;5.346;2022-08-05T05:59:11;21.00;12.00
33903;DHT22;20194;50.950;5.346;2022-08-05T06:01:39;21.00;9.10
33903;DHT22;20194;50.950;5.346;2022-08-05T06:04:14;20.80;11.40
33903;DHT22;20194;50.950;5.346;2022-08-05T06:06:40;21.00;9.70
33903;DHT22;20194;50.950;5.346;2022-08-05T06:09:09;21.00;10.20
33903;DHT22;20194;50.950;5.346;2022-08-05T06:11:35;20.90;7.50
33903;DHT22;20194;50.950;5.346;2022-08-05T06:14:02;20.80;9.00
33903;DHT22;20194;50.950;5.346;2022-08-05T06:16:27;20.80;10.00
33903;DHT22;20194;50.950;5.346;2022-08-05T06:18:53;20.80;9.90
33903;DHT22;20194;50.950;5.346;2022-08-05T06:21:19;20.70;11.80
33903;DHT22;20194;50.950;5.346;2022-08-05T06:23:45;20.70;12.40
33903;DHT22;20194;50.950;5.346;2022-08-05T06:26:11;20.80;11.60
33903;DHT22;20194;50.950;5.346;2022-08-05T06:28:37;21.00;9.90
33903;DHT22;20194;50.950;5.346;2022-08-05T06:31:02;20.90;11.00
33903;DHT22;20194;50.950;5.346;2022-08-05T06:33:28;20.80;14.70
33903;DHT22;20194;50.950;5.346;2022-08-05T06:35:54;20.90;11.70
33903;DHT22;20194;50.950;5.346;2022-08-05T06:38:19;20.70;10.80
33903;DHT22;20194;50.950;5.346;2022-08-05T06:40:45;20.70;12.80
33903;DHT22;20194;50.950;5.346;2022-08-05T06:43:12;20.80;11.00
33903;DHT22;20194;50.950;5.346;2022-08-05T06:45:37;20.90;10.80
33903;DHT22;20194;50.950;5.346;2022-08-05T06:48:03;20.80;13.70
33903;DHT22;20194;50.950;5.346;2022-08-05T06:50:29;20.90;10.40
33903;DHT22;20194;50.950;5.346;2022-08-05T06:52:55;21.00;9.40
33903;DHT22;20194;50.950;5.346;2022-08-05T06:55:20;20.90;11.70
33903;DHT22;20194;50.950;5.346;2022-08-05T06:57:46;21.00;9.50
33903;DHT22;20194;50.950;5.346;2022-08-05T07:00:12;21.00;11.00
33903;DHT22;20194;50.950;5.346;2022-08-05T07:02:42;21.10;9.60
33903;DHT22;20194;50.950;5.346;2022-08-05T07:05:08;21.10;6.20
33903;DHT22;20194;50.950;5.346;2022-08-05T07:07:35;21.10;4.30
33903;DHT22;20194;50.950;5.346;2022-08-05T07:10:01;21.00;2.50
33903;DHT22;20194;50.950;5.346;2022-08-05T07:12:27;20.90;7.10
33903;DHT22;20194;50.950;5.346;2022-08-05T07:15:11;20.90;9.00
33903;DHT22;20194;50.950;5.346;2022-08-05T07:17:55;21.00;1.00
33903;DHT22;20194;50.950;5.346;2022-08-05T07:20:21;21.20;1.00
33903;DHT22;20194;50.950;5.346;2022-08-05T07:22:47;21.30;1.00
33903;DHT22;20194;50.950;5.346;2022-08-05T07:25:13;21.30;1.00
33903;DHT22;20194;50.950;5.346;2022-08-05T07:27:38;21.30;1.00
33903;DHT22;20194;50.950;5.346;2022-08-05T07:30:04;21.40;1.00
33903;DHT22;20194;50.950;5.346;2022-08-05T07:32:34;21.30;1.00
33903;DHT22;20194;50.950;5.346;2022-08-05T07:35:05;21.40;1.00
33903;DHT22;20194;50.950;5.346;2022-08-05T07:37:31;21.40;1.00
33903;DHT22;20194;50.950;5.346;2022-08-05T07:39:57;21.30;1.00
33903;DHT22;20194;50.950;5.346;2022-08-05T07:42:22;21.50;1.00
33903;DHT22;20194;50.950;5.346;2022-08-05T07:44:48;21.30;1.00
33903;DHT22;20194;50.950;5.346;2022-08-05T07:47:14;21.40;1.00
33903;DHT22;20194;50.950;5.346;2022-08-05T07:49:39;21.30;1.00
33903;DHT22;20194;50.950;5.346;2022-08-05T07:52:05;21.40;1.00
33903;DHT22;20194;50.950;5.346;2022-08-05T07:54:31;21.40;1.00
33903;DHT22;20194;50.950;5.346;2022-08-05T07:56:57;21.50;1.00
33903;DHT22;20194;50.950;5.346;2022-08-05T07:59:22;21.50;1.00
33903;DHT22;20194;50.950;5.346;2022-08-05T08:01:49;21.10;1.00
33903;DHT22;20194;50.950;5.346;2022-08-05T08:04:15;20.80;1.00
33903;DHT22;20194;50.950;5.346;2022-08-05T08:06:40;21.00;1.00
33903;DHT22;20194;50.950;5.346;2022-08-05T08:09:06;20.90;1.00
33903;DHT22;20194;50.950;5.346;2022-08-05T08:11:32;20.60;1.00
33903;DHT22;20194;50.950;5.346;2022-08-05T08:13:58;21.00;1.00
33903;DHT22;20194;50.950;5.346;2022-08-05T08:16:24;20.80;1.00
33903;DHT22;20194;50.950;5.346;2022-08-05T08:18:49;20.70;1.00
33903;DHT22;20194;50.950;5.346;2022-08-05T08:21:15;21.10;1.00
33903;DHT22;20194;50.950;5.346;2022-08-05T08:23:40;21.40;1.00
33903;DHT22;20194;50.950;5.346;2022-08-05T08:26:06;21.60;1.00
33903;DHT22;20194;50.950;5.346;2022-08-05T08:28:32;21.60;1.00
33903;DHT22;20194;50.950;5.346;2022-08-05T08:30:57;21.80;1.00
33903;DHT22;20194;50.950;5.346;2022-08-05T08:33:23;22.10;1.00
33903;DHT22;20194;50.950;5.346;2022-08-05T08:35:49;22.40;1.00
33903;DHT22;20194;50.950;5.346;2022-08-05T08:38:14;22.20;1.00
33903;DHT22;20194;50.950;5.346;2022-08-05T08:40:41;22.30;1.00
33903;DHT22;20194;50.950;5.346;2022-08-05T08:43:11;22.00;1.00
33903;DHT22;20194;50.950;5.346;2022-08-05T08:45:37;22.20;1.00
33903;DHT22;20194;50.950;5.346;2022-08-05T08:48:05;22.40;1.00
33903;DHT22;20194;50.950;5.346;2022-08-05T08:50:31;22.70;1.00
33903;DHT22;20194;50.950;5.346;2022-08-05T08:53:04;22.80;1.00
33903;DHT22;20194;50.950;5.346;2022-08-05T08:55:34;22.90;1.00
33903;DHT22;20194;50.950;5.346;2022-08-05T08:58:02;22.50;1.00
33903;DHT22;20194;50.950;5.346;2022-08-05T09:00:28;22.40;1.00
33903;DHT22;20194;50.950;5.346;2022-08-05T09:02:56;22.70;1.00
33903;DHT22;20194;50.950;5.346;2022-08-05T09:05:22;22.60;1.00
33903;DHT22;20194;50.950;5.346;2022-08-05T09:07:50;22.70;1.00
33903;DHT22;20194;50.950;5.346;2022-08-05T09:10:17;22.70;1.00
33903;DHT22;20194;50.950;5.346;2022-08-05T09:12:43;22.70;1.00
33903;DHT22;20194;50.950;5.346;2022-08-05T09:15:09;22.90;1.00
33903;DHT22;20194;50.950;5.346;2022-08-05T09:17:35;22.90;1.00
33903;DHT22;20194;50.950;5.346;2022-08-05T09:20:02;22.80;1.00
33903;DHT22;20194;50.950;5.346;2022-08-05T09:25:26;22.80;1.00
33903;DHT22;20194;50.950;5.346;2022-08-05T09:27:52;23.10;1.00
33903;DHT22;20194;50.950;5.346;2022-08-05T09:30:18;23.40;1.00
33903;DHT22;20194;50.950;5.346;2022-08-05T09:32:44;23.70;1.00
33903;DHT22;20194;50.950;5.346;2022-08-05T09:35:15;24.00;1.00
33903;DHT22;20194;50.950;5.346;2022-08-05T09:37:52;23.90;1.00
33903;DHT22;20194;50.950;5.346;2022-08-05T09:40:39;23.70;1.00
33903;DHT22;20194;50.950;5.346;2022-08-05T09:43:07;23.40;1.00
33903;DHT22;20194;50.950;5.346;2022-08-05T09:45:41;23.30;1.00
33903;DHT22;20194;50.950;5.346;2022-08-05T09:48:27;23.50;1.00
33903;DHT22;20194;50.950;5.346;2022-08-05T09:50:57;24.10;1.00
33903;DHT22;20194;50.950;5.346;2022-08-05T09:53:24;24.40;1.00
33903;DHT22;20194;50.950;5.346;2022-08-05T09:55:51;24.30;1.00
33903;DHT22;20194;50.950;5.346;2022-08-05T09:58:17;24.20;1.00
33903;DHT22;20194;50.950;5.346;2022-08-05T10:01:05;24.30;1.00
33903;DHT22;20194;50.950;5.346;2022-08-05T10:03:31;24.50;1.00
33903;DHT22;20194;50.950;5.346;2022-08-05T10:06:08;24.50;1.00
33903;DHT22;20194;50.950;5.346;2022-08-05T10:08:36;24.50;1.00
33903;DHT22;20194;50.950;5.346;2022-08-05T10:11:13;24.40;1.00
33903;DHT22;20194;50.950;5.346;2022-08-05T10:13:41;24.30;1.00
33903;DHT22;20194;50.950;5.346;2022-08-05T10:16:33;24.10;1.00
33903;DHT22;20194;50.950;5.346;2022-08-05T10:18:59;24.40;1.00
33903;DHT22;20194;50.950;5.346;2022-08-05T10:21:25;24.80;1.00
33903;DHT22;20194;50.950;5.346;2022-08-05T10:23:52;25.10;1.00
33903;DHT22;20194;50.950;5.346;2022-08-05T10:26:18;25.20;1.00
33903;DHT22;20194;50.950;5.346;2022-08-05T10:28:45;25.20;1.00
33903;DHT22;20194;50.950;5.346;2022-08-05T10:31:14;25.10;1.00
33903;DHT22;20194;50.950;5.346;2022-08-05T10:33:41;25.10;1.00
33903;DHT22;20194;50.950;5.346;2022-08-05T10:36:07;25.40;99.90
33903;DHT22;20194;50.950;5.346;2022-08-05T10:38:34;25.60;99.90
33903;DHT22;20194;50.950;5.346;2022-08-05T10:41:12;26.00;99.90
33903;DHT22;20194;50.950;5.346;2022-08-05T10:43:52;26.20;99.90
33903;DHT22;20194;50.950;5.346;2022-08-05T10:46:23;26.20;79.40
33903;DHT22;20194;50.950;5.346;2022-08-05T10:48:58;25.60;1.00
33903;DHT22;20194;50.950;5.346;2022-08-05T10:51:47;25.40;99.90
33903;DHT22;20194;50.950;5.346;2022-08-05T10:54:15;25.70;99.90
33903;DHT22;20194;50.950;5.346;2022-08-05T10:56:47;25.60;99.90
33903;DHT22;20194;50.950;5.346;2022-08-05T10:59:31;25.40;99.90
33903;DHT22;20194;50.950;5.346;2022-08-05T11:02:09;25.10;99.90
33903;DHT22;20194;50.950;5.346;2022-08-05T11:07:08;24.70;99.90
33903;DHT22;20194;50.950;5.346;2022-08-05T11:09:37;24.40;99.90
33903;DHT22;20194;50.950;5.346;2022-08-05T11:12:03;24.30;99.90
33903;DHT22;20194;50.950;5.346;2022-08-05T11:14:31;24.40;99.90
33903;DHT22;20194;50.950;5.346;2022-08-05T11:17:33;24.40;99.90
33903;DHT22;20194;50.950;5.346;2022-08-05T11:20:03;24.30;99.90
33903;DHT22;20194;50.950;5.346;2022-08-05T11:22:49;24.20;99.90
33903;DHT22;20194;50.950;5.346;2022-08-05T11:25:36;24.40;99.90
33903;DHT22;20194;50.950;5.346;2022-08-05T11:33:39;24.50;99.90
33903;DHT22;20194;50.950;5.346;2022-08-05T11:39:03;24.60;99.90
33903;DHT22;20194;50.950;5.346;2022-08-05T11:41:30;25.00;99.90
33903;DHT22;20194;50.950;5.346;2022-08-05T11:43:58;25.20;98.90
33903;DHT22;20194;50.950;5.346;2022-08-05T11:46:34;25.50;1.00
33903;DHT22;20194;50.950;5.346;2022-08-05T11:49:03;25.70;1.00
33903;DHT22;20194;50.950;5.346;2022-08-05T11:51:30;25.60;1.00
33903;DHT22;20194;50.950;5.346;2022-08-05T11:53:57;25.50;1.00
33903;DHT22;20194;50.950;5.346;2022-08-05T11:56:23;25.30;1.00
33903;DHT22;20194;50.950;5.346;2022-08-05T11:58:50;25.30;1.00
33903;DHT22;20194;50.950;5.346;2022-08-05T12:01:20;25.10;1.00
33903;DHT22;20194;50.950;5.346;2022-08-05T12:03:54;24.80;1.00
33903;DHT22;20194;50.950;5.346;2022-08-05T12:06:24;24.70;1.00
33903;DHT22;20194;50.950;5.346;2022-08-05T12:08:56;24.60;99.90
33903;DHT22;20194;50.950;5.346;2022-08-05T12:11:25;24.60;99.90
33903;DHT22;20194;50.950;5.346;2022-08-05T12:13:59;24.50;1.00
33903;DHT22;20194;50.950;5.346;2022-08-05T12:16:30;24.80;99.90
33903;DHT22;20194;50.950;5.346;2022-08-05T12:18:56;25.00;99.90
33903;DHT22;20194;50.950;5.346;2022-08-05T12:21:31;25.10;99.90
33903;DHT22;20194;50.950;5.346;2022-08-05T12:24:10;25.40;1.00
33903;DHT22;20194;50.950;5.346;2022-08-05T12:26:42;25.40;1.00
33903;DHT22;20194;50.950;5.346;2022-08-05T12:29:15;25.70;1.00
33903;DHT22;20194;50.950;5.346;2022-08-05T12:31:46;25.50;99.90
33903;DHT22;20194;50.950;5.346;2022-08-05T12:34:13;25.50;24.00
33903;DHT22;20194;50.950;5.346;2022-08-05T12:36:39;25.40;1.00
33903;DHT22;20194;50.950;5.346;2022-08-05T12:39:06;25.30;1.00
33903;DHT22;20194;50.950;5.346;2022-08-05T12:41:34;25.20;99.90
33903;DHT22;20194;50.950;5.346;2022-08-05T12:44:02;25.30;1.00
33903;DHT22;20194;50.950;5.346;2022-08-05T12:46:30;25.40;99.90
33903;DHT22;20194;50.950;5.346;2022-08-05T12:49:03;25.20;99.90
33903;DHT22;20194;50.950;5.346;2022-08-05T12:51:29;25.40;99.90
33903;DHT22;20194;50.950;5.346;2022-08-05T12:54:00;25.60;99.90
33903;DHT22;20194;50.950;5.346;2022-08-05T12:56:27;25.70;93.20
33903;DHT22;20194;50.950;5.346;2022-08-05T12:59:31;25.70;99.90
33903;DHT22;20194;50.950;5.346;2022-08-05T13:02:00;25.80;99.90
33903;DHT22;20194;50.950;5.346;2022-08-05T13:07:10;25.60;1.00
33903;DHT22;20194;50.950;5.346;2022-08-05T13:09:50;25.60;1.00
33903;DHT22;20194;50.950;5.346;2022-08-05T13:12:18;25.40;1.00
33903;DHT22;20194;50.950;5.346;2022-08-05T13:14:54;25.50;1.00
33903;DHT22;20194;50.950;5.346;2022-08-05T13:17:26;25.70;99.90
33903;DHT22;20194;50.950;5.346;2022-08-05T13:22:32;25.60;99.90
33903;DHT22;20194;50.950;5.346;2022-08-05T13:25:04;25.70;99.90
33903;DHT22;20194;50.950;5.346;2022-08-05T13:27:34;25.90;99.90
33903;DHT22;20194;50.950;5.346;2022-08-05T13:30:00;25.90;1.00
33903;DHT22;20194;50.950;5.346;2022-08-05T13:32:26;25.90;99.90
33903;DHT22;20194;50.950;5.346;2022-08-05T13:34:53;25.90;99.90
33903;DHT22;20194;50.950;5.346;2022-08-05T13:37:20;26.10;1.00
33903;DHT22;20194;50.950;5.346;2022-08-05T13:39:55;25.90;99.90
33903;DHT22;20194;50.950;5.346;2022-08-05T13:42:22;25.70;99.90
33903;DHT22;20194;50.950;5.346;2022-08-05T13:44:55;25.60;99.90
33903;DHT22;20194;50.950;5.346;2022-08-05T13:47:22;25.40;99.90
33903;DHT22;20194;50.950;5.346;2022-08-05T13:49:48;25.40;99.90
33903;DHT22;20194;50.950;5.346;2022-08-05T13:52:19;25.00;99.90
33903;DHT22;20194;50.950;5.346;2022-08-05T13:54:45;24.80;1.00
33903;DHT22;20194;50.950;5.346;2022-08-05T13:57:11;24.90;1.00
33903;DHT22;20194;50.950;5.346;2022-08-05T13:59:39;25.00;99.90
33903;DHT22;20194;50.950;5.346;2022-08-05T14:02:07;24.80;1.00
33903;DHT22;20194;50.950;5.346;2022-08-05T14:04:38;24.80;1.00
33903;DHT22;20194;50.950;5.346;2022-08-05T14:07:27;24.60;1.00
33903;DHT22;20194;50.950;5.346;2022-08-05T14:09:53;24.50;1.00
33903;DHT22;20194;50.950;5.346;2022-08-05T14:12:19;24.50;99.90
33903;DHT22;20194;50.950;5.346;2022-08-05T14:14:46;24.60;1.00
33903;DHT22;20194;50.950;5.346;2022-08-05T14:17:12;24.60;1.00
33903;DHT22;20194;50.950;5.346;2022-08-05T14:19:41;24.80;99.90
33903;DHT22;20194;50.950;5.346;2022-08-05T14:22:06;25.00;99.90
33903;DHT22;20194;50.950;5.346;2022-08-05T14:24:32;25.10;99.90
33903;DHT22;20194;50.950;5.346;2022-08-05T14:26:58;25.10;1.00
33903;DHT22;20194;50.950;5.346;2022-08-05T14:29:23;24.70;1.00
33903;DHT22;20194;50.950;5.346;2022-08-05T14:31:49;24.70;1.00
33903;DHT22;20194;50.950;5.346;2022-08-05T14:34:15;24.60;1.00
33903;DHT22;20194;50.950;5.346;2022-08-05T14:36:41;24.40;1.00
33903;DHT22;20194;50.950;5.346;2022-08-05T14:39:06;24.30;99.90
33903;DHT22;20194;50.950;5.346;2022-08-05T14:41:33;24.20;99.90
33903;DHT22;20194;50.950;5.346;2022-08-05T14:43:59;24.10;99.90
33903;DHT22;20194;50.950;5.346;2022-08-05T14:46:27;24.20;99.90
33903;DHT22;20194;50.950;5.346;2022-08-05T14:48:53;24.10;99.90
33903;DHT22;20194;50.950;5.346;2022-08-05T14:51:20;23.80;99.90
33903;DHT22;20194;50.950;5.346;2022-08-05T14:53:46;23.80;99.90
33903;DHT22;20194;50.950;5.346;2022-08-05T14:56:14;23.80;99.90
33903;DHT22;20194;50.950;5.346;2022-08-05T14:58:40;23.90;1.00
33903;DHT22;20194;50.950;5.346;2022-08-05T15:01:06;23.80;99.90
33903;DHT22;20194;50.950;5.346;2022-08-05T15:03:33;23.90;1.00
33903;DHT22;20194;50.950;5.346;2022-08-05T15:05:59;24.20;1.00
33903;DHT22;20194;50.950;5.346;2022-08-05T15:08:24;24.40;1.00
33903;DHT22;20194;50.950;5.346;2022-08-05T15:10:51;24.50;99.90
33903;DHT22;20194;50.950;5.346;2022-08-05T15:13:17;24.60;99.90
33903;DHT22;20194;50.950;5.346;2022-08-05T15:15:43;24.60;99.90
33903;DHT22;20194;50.950;5.346;2022-08-05T15:18:09;24.60;99.90
33903;DHT22;20194;50.950;5.346;2022-08-05T15:20:35;24.70;99.90
33903;DHT22;20194;50.950;5.346;2022-08-05T15:23:09;24.70;99.90
33903;DHT22;20194;50.950;5.346;2022-08-05T15:25:36;24.60;99.90
33903;DHT22;20194;50.950;5.346;2022-08-05T15:28:03;24.60;99.90
33903;DHT22;20194;50.950;5.346;2022-08-05T15:30:28;24.50;99.90
33903;DHT22;20194;50.950;5.346;2022-08-05T15:32:57;24.50;99.90
33903;DHT22;20194;50.950;5.346;2022-08-05T15:35:23;24.70;99.90
33903;DHT22;20194;50.950;5.346;2022-08-05T15:37:50;24.70;99.90
33903;DHT22;20194;50.950;5.346;2022-08-05T15:40:15;24.70;99.90
33903;DHT22;20194;50.950;5.346;2022-08-05T15:42:41;24.80;99.90
33903;DHT22;20194;50.950;5.346;2022-08-05T15:45:07;24.90;99.90
33903;DHT22;20194;50.950;5.346;2022-08-05T15:47:38;25.00;99.90
33903;DHT22;20194;50.950;5.346;2022-08-05T15:50:05;24.80;99.90
33903;DHT22;20194;50.950;5.346;2022-08-05T15:52:31;24.80;99.90
33903;DHT22;20194;50.950;5.346;2022-08-05T15:54:58;24.70;99.90
33903;DHT22;20194;50.950;5.346;2022-08-05T15:57:23;24.60;92.50
33903;DHT22;20194;50.950;5.346;2022-08-05T15:59:49;24.60;54.20
33903;DHT22;20194;50.950;5.346;2022-08-05T16:02:16;24.50;1.00
33903;DHT22;20194;50.950;5.346;2022-08-05T16:04:42;24.60;1.00
33903;DHT22;20194;50.950;5.346;2022-08-05T16:07:08;24.70;1.00
33903;DHT22;20194;50.950;5.346;2022-08-05T16:09:34;24.70;1.00
33903;DHT22;20194;50.950;5.346;2022-08-05T16:11:59;24.50;1.00
33903;DHT22;20194;50.950;5.346;2022-08-05T16:14:26;24.50;1.00
33903;DHT22;20194;50.950;5.346;2022-08-05T16:16:52;24.30;1.00